Latest Weather Observations for Dum In Mirrie

IDD60901

Issued at 11:51 pm CST Wednesday 7 December 2016 (issued every 10 minutes, with the page automatically refreshed every 10 minutes)

About weather observations | Map of Darwin area stations | Latest observations for Darwin area | Other Formats
Station Details ID: 014277 Name: DUM IN MIRRIE AIRSTRIP Lat: -12.63 Lon: 130.37 Height: 3.5 m
Data from the previous 72 hours. | See also: Recent months at Dum In Mirrie
Date/Time
CST
Temp
°C
App
Temp
°C
Dew
Point
°C
Rel
Hum
%
Delta-T
°C
Wind Press
QNH
hPa
Press
MSL
hPa
Rain since
9am
mm
Dir  Spd
km/h
Gust
km/h
Spd
kts
Gust
kts
07/11:30pm 30.6 35.7 25.0 72 3.9 W 7 11 4 6 1007.4 1007.4 0.0
07/11:00pm 30.7 35.9 24.8 71 4.1 W 6 13 3 7 1007.5 1007.5 0.0
07/10:30pm 30.7 35.4 23.9 67 4.7 WNW 6 11 3 6 1007.4 1007.4 0.0
07/10:00pm 30.6 35.3 24.0 68 4.6 WNW 6 11 3 6 1007.1 1007.1 0.0
07/09:30pm 30.7 35.2 23.6 66 4.9 NW 6 11 3 6 1006.8 1006.8 0.0
07/09:00pm 30.7 35.2 23.6 66 4.9 WNW 6 9 3 5 1006.4 1006.4 0.0
07/08:30pm 30.7 35.2 23.6 66 4.9 WNW 6 9 3 5 1006.2 1006.2 0.0
07/08:00pm 30.9 35.1 23.5 64 5.1 WNW 7 13 4 7 1006.1 1006.1 0.0
07/07:30pm 30.9 35.5 23.8 66 4.9 WNW 6 9 3 5 1005.9 1005.9 0.0
07/07:00pm 31.1 35.6 24.0 66 4.9 WNW 7 17 4 9 1005.8 1005.8 0.0
07/06:30pm 31.5 36.1 24.1 65 5.2 WNW 7 15 4 8 1005.5 1005.5 0.0
07/06:00pm 32.2 36.6 24.5 64 5.4 W 9 19 5 10 1005.1 1005.1 0.0
07/05:30pm 32.4 37.3 24.7 64 5.4 W 7 15 4 8 1005.0 1005.0 0.0
07/05:00pm 32.8 37.6 25.1 64 5.4 W 9 17 5 9 1005.0 1005.0 0.0
07/04:30pm 32.9 37.0 25.2 64 5.5 W 13 22 7 12 1005.0 1005.0 0.0
07/04:00pm 33.2 37.2 24.4 60 6.2 W 11 20 6 11 1005.3 1005.3 0.0
07/03:30pm 32.8 36.4 23.7 58 6.3 W 11 17 6 9 1005.6 1005.6 0.0
07/03:00pm 33.0 37.7 25.0 63 5.7 W 9 17 5 9 1005.7 1005.7 0.0
07/02:30pm 32.8 37.1 23.7 58 6.3 WSW 7 13 4 7 1006.1 1006.1 0.0
07/02:00pm 34.3 39.0 24.3 56 7.0 WSW 7 15 4 8 1006.4 1006.4 0.0
07/01:30pm 33.7 38.4 24.3 58 6.6 WSW 7 19 4 10 1006.6 1006.6 0.0
07/01:00pm 34.0 39.4 25.4 61 6.1 WSW 7 19 4 10 1006.9 1006.9 0.0
07/12:30pm 32.7 37.7 26.0 68 4.8 SW 11 22 6 12 1007.4 1007.4 0.0
07/12:00pm 33.0 36.8 24.7 61 5.9 WSW 13 17 7 9 1008.0 1008.0 0.0
07/11:30am 32.9 37.4 24.6 61 5.8 WSW 9 13 5 7 1008.4 1008.4 0.0
07/11:00am 32.9 37.3 24.4 61 6.0 WSW 9 13 5 7 1008.6 1008.6 0.0
07/10:30am 32.7 37.5 24.2 61 6.0 WSW 6 9 3 5 1009.0 1009.0 0.0
07/10:00am 31.8 36.5 23.9 63 5.5 WSW 6 7 3 4 1009.5 1009.5 0.0
07/09:30am 31.8 37.3 24.1 63 5.4 W 2 4 1 2 1009.3 1009.3 0.0
07/09:00am 32.2 37.8 24.3 63 5.5 WSW 2 6 1 3 1009.6 1009.6 0.0
07/08:30am 31.8 36.9 24.7 66 5.0 W 6 7 3 4 1009.5 1009.5 0.0
07/08:00am 31.6 37.6 25.5 70 4.3 W 4 9 2 5 1009.3 1009.3 0.0
07/07:30am 30.7 37.1 25.5 74 3.7 NW 2 6 1 3 1009.0 1009.0 0.0
07/07:00am 29.4 36.2 25.6 80 2.7 CALM 0 0 0 0 1008.8 1008.8 0.0
07/06:30am 28.5 34.1 24.9 81 2.5 WNW 4 7 2 4 1008.6 1008.6 0.0
07/06:00am 29.0 34.8 24.6 77 3.1 WNW 2 6 1 3 1008.3 1008.3 0.0
07/05:30am 29.4 35.0 24.9 77 3.2 WNW 4 7 2 4 1007.9 1007.9 0.0
07/05:00am 29.5 34.8 25.0 77 3.2 WNW 6 9 3 5 1007.7 1007.7 0.0
07/04:30am 29.5 34.6 25.0 77 3.2 NW 7 13 4 7 1007.0 1007.0 0.0
07/04:00am 29.5 34.5 24.8 76 3.3 WNW 7 11 4 6 1006.9 1006.9 0.0
07/03:30am 29.4 34.9 24.7 76 3.3 WNW 4 7 2 4 1007.1 1007.1 0.0
07/03:00am 29.6 34.9 24.9 76 3.3 WNW 6 9 3 5 1007.1 1007.1 0.0
07/02:30am 29.7 34.8 24.6 74 3.6 WNW 6 13 3 7 1007.1 1007.1 0.0
07/02:00am 29.7 34.8 24.6 74 3.6 WNW 6 9 3 5 1007.6 1007.6 0.0
07/01:30am 29.7 34.8 24.6 74 3.6 NW 6 9 3 5 1007.9 1007.9 0.0
07/01:00am 29.7 34.8 24.6 74 3.6 NW 6 9 3 5 1008.0 1008.0 0.0
07/12:30am 29.8 34.7 24.7 74 3.6 NNW 7 11 4 6 1008.5 1008.5 0.0
07/12:00am 30.0 35.3 24.9 74 3.6 NW 6 13 3 7 1008.7 1008.7 0.0
 
Date/Time
CST
Temp
°C
App
Temp
°C
Dew
Point
°C
Rel
Hum
%
Delta-T
°C
Wind Press
QNH
hPa
Press
MSL
hPa
Rain since
9am
mm
Dir  Spd
km/h
Gust
km/h
Spd
kts
Gust
kts
06/11:30pm 30.2 35.3 24.6 72 3.9 WNW 6 11 3 6 1009.2 1009.2 0.0
06/11:00pm 30.2 34.8 24.1 70 4.2 NW 7 15 4 8 1009.2 1009.2 0.0
06/10:30pm 30.3 34.8 24.0 69 4.4 NW 7 13 4 7 1008.9 1008.9 0.0
06/10:00pm 30.3 35.1 24.4 70 4.1 NW 7 13 4 7 1008.9 1008.9 0.0
06/09:30pm 30.3 35.1 24.2 70 4.3 NW 6 13 3 7 1008.7 1008.7 0.0
06/09:00pm 30.3 35.2 24.4 70 4.1 NW 6 11 3 6 1008.3 1008.3 0.0
06/08:30pm 30.2 35.7 24.6 72 3.9 WNW 4 7 2 4 1007.9 1007.9 0.0
06/08:00pm 30.2 35.7 24.6 72 3.9 WNW 4 7 2 4 1007.3 1007.3 0.0
06/07:30pm 30.4 35.7 24.3 70 4.3 W 4 9 2 5 1006.7 1006.7 0.0
06/07:00pm 30.5 35.4 24.4 70 4.3 WNW 6 9 3 5 1006.3 1006.3 0.0
06/06:30pm 30.8 35.3 24.0 67 4.7 WNW 7 13 4 7 1006.2 1006.2 0.0
06/06:00pm 31.1 35.8 24.0 66 4.9 W 6 13 3 7 1006.1 1006.1 0.0
06/05:30pm 32.1 37.2 24.9 65 5.1 WNW 7 13 4 7 1006.4 1006.4 0.0
06/05:00pm 31.9 37.2 25.2 67 4.7 NW 7 13 4 7 1005.6 1005.6 0.0
06/04:30pm 32.4 37.5 25.5 67 4.9 NW 9 17 5 9 1005.8 1005.8 0.0
06/04:00pm 32.2 36.8 25.3 67 4.9 NW 11 17 6 9 1005.8 1005.8 0.0
06/03:30pm 32.5 37.6 25.6 67 4.9 NW 9 19 5 10 1006.4 1006.4 0.0
06/03:00pm 31.9 36.4 25.2 67 4.7 NW 11 20 6 11 1006.4 1006.4 0.0
06/02:30pm 32.3 37.4 25.6 67 4.8 NW 9 19 5 10 1006.9 1006.9 0.0
06/02:00pm 32.5 37.0 25.8 68 4.8 NW 13 24 7 13 1007.4 1007.4 0.0
06/01:30pm 32.8 37.7 25.9 67 4.9 NW 11 19 6 10 1007.7 1007.7 0.0
06/01:00pm 32.0 37.3 25.8 69 4.4 NNW 9 17 5 9 1008.1 1008.1 0.0
06/12:30pm 31.1 36.9 26.1 75 3.6 NW 7 15 4 8 1008.5 1008.5 0.0
06/12:00pm 31.2 37.0 26.0 74 3.7 NW 7 15 4 8 1009.0 1009.0 0.0
06/11:30am 31.9 37.9 26.4 72 3.9 NW 7 17 4 9 1009.3 1009.3 0.0
06/11:00am 31.6 37.0 25.2 69 4.5 N 6 11 3 6 1009.9 1009.9 0.0
06/10:30am 32.3 38.0 23.8 61 5.9 CALM 0 2 0 1 1010.0 1010.0 0.0
06/10:00am 33.2 38.5 24.4 60 6.2 SE 4 6 2 3 1009.8 1009.8 0.0
06/09:30am 32.2 36.9 24.0 62 5.7 S 6 13 3 7 1010.0 1010.0 0.0
06/09:00am 31.9 37.5 25.7 69 4.4 ESE 7 13 4 7 1009.8 1009.8 0.6
06/08:30am 31.0 36.7 25.6 73 3.8 ESE 6 11 3 6 1010.1 1010.1 0.6
06/08:00am 30.1 35.7 25.8 78 3.1 E 7 13 4 7 1010.0 1010.0 0.6
06/07:30am 28.8 33.8 25.4 82 2.4 ESE 9 15 5 8 1009.9 1009.9 0.6
06/07:00am 28.1 33.9 25.7 87 1.7 ESE 6 7 3 4 1009.6 1009.6 0.6
06/06:30am 27.5 33.5 25.5 89 1.4 ESE 4 6 2 3 1009.2 1009.2 0.6
06/06:00am 27.3 33.4 25.7 91 1.1 SE 4 6 2 3 1008.7 1008.7 0.6
06/05:30am 27.6 33.9 26.0 91 1.1 ESE 4 4 2 2 1008.4 1008.4 0.6
06/05:00am 27.5 34.0 25.7 90 1.3 ESE 2 4 1 2 1008.0 1008.0 0.6
06/04:30am 27.7 34.2 25.7 89 1.4 SSW 2 4 1 2 1007.7 1007.7 0.6
06/04:00am 28.4 35.0 25.2 83 2.2 CALM 0 0 0 0 1007.5 1007.5 0.6
06/03:30am 28.1 34.2 24.5 81 2.5 CALM 0 0 0 0 1007.4 1007.4 0.6
06/03:00am 28.9 34.9 24.9 79 2.8 W 2 7 1 4 1007.4 1007.4 0.6
06/02:30am 28.9 34.4 24.7 78 2.9 W 4 7 2 4 1007.5 1007.5 0.6
06/02:00am 29.3 35.1 24.6 76 3.3 W 2 7 1 4 1007.6 1007.6 0.6
06/01:30am 29.2 35.5 24.7 77 3.1 CALM 0 6 0 3 1007.8 1007.8 0.6
06/01:00am 29.4 34.4 24.5 75 3.4 W 6 11 3 6 1008.1 1008.1 0.6
06/12:30am 28.4 34.1 25.0 82 2.4 WSW 4 9 2 5 1008.3 1008.3 0.6
06/12:00am 28.1 35.4 26.3 90 1.3 CALM 0 0 0 0 1008.8 1008.8 0.6
 
Date/Time
CST
Temp
°C
App
Temp
°C
Dew
Point
°C
Rel
Hum
%
Delta-T
°C
Wind Press
QNH
hPa
Press
MSL
hPa
Rain since
9am
mm
Dir  Spd
km/h
Gust
km/h
Spd
kts
Gust
kts
05/11:30pm 28.3 34.7 25.5 85 2.0 WNW 2 6 1 3 1008.9 1008.9 0.6
05/11:00pm 29.4 34.5 24.7 76 3.3 SSW 6 9 3 5 1009.1 1009.1 0.2
05/10:30pm 30.6 35.9 24.3 69 4.4 WSW 4 9 2 5 1009.1 1009.1 0.0
05/10:00pm 30.6 35.6 24.5 70 4.3 WSW 6 11 3 6 1008.7 1008.7 0.0
05/09:30pm 30.6 35.3 24.0 68 4.6 W 6 11 3 6 1008.4 1008.4 0.0
05/09:00pm 30.7 35.4 23.9 67 4.7 W 6 11 3 6 1008.2 1008.2 0.0
05/08:30pm 30.8 34.6 23.5 65 5.0 W 9 15 5 8 1008.2 1008.2 0.0
05/08:00pm 30.8 35.1 23.7 66 4.9 W 7 13 4 7 1007.7 1007.7 0.0
05/07:30pm 30.5 35.0 23.7 67 4.7 W 6 11 3 6 1007.3 1007.3 0.0
05/07:00pm 30.8 35.5 24.0 67 4.7 W 6 9 3 5 1006.9 1006.9 0.0
05/06:30pm 31.2 35.8 23.8 64 5.1 W 6 11 3 6 1006.9 1006.9 0.0
05/06:00pm 31.6 36.1 23.7 63 5.5 WNW 6 15 3 8 1006.6 1006.6 0.0
05/05:30pm 32.4 37.0 24.2 62 5.7 WNW 7 17 4 9 1006.2 1006.2 0.0
05/05:00pm 32.5 36.6 24.0 61 5.9 WNW 9 17 5 9 1006.1 1006.1 0.0
05/04:30pm 32.8 36.8 23.7 58 6.3 W 9 13 5 7 1005.8 1005.8 0.0
05/04:00pm 33.0 36.9 23.6 57 6.5 W 9 15 5 8 1005.9 1005.9 0.0
05/03:30pm 33.2 37.4 24.1 59 6.4 WNW 9 13 5 7 1006.3 1006.3 0.0
05/03:00pm 33.1 37.2 24.0 59 6.4 WNW 9 15 5 8 1006.4 1006.4 0.0
05/02:30pm 32.7 36.8 23.9 60 6.1 W 9 17 5 9 1006.8 1006.8 0.0
05/02:00pm 32.2 36.2 23.7 61 5.9 W 9 17 5 9 1007.4 1007.4 0.0
05/01:30pm 33.2 37.4 24.1 59 6.4 NW 9 17 5 9 1007.8 1007.8 0.0
05/01:00pm 32.4 36.8 24.4 62 5.6 NW 9 17 5 9 1008.1 1008.1 0.0
05/12:30pm 32.2 36.3 24.0 62 5.7 NW 9 15 5 8 1008.5 1008.5 0.0
05/12:00pm 31.5 36.3 24.4 66 5.0 NW 7 15 4 8 1008.7 1008.7 0.0
05/11:30am 30.9 34.4 22.8 62 5.6 NNW 9 13 5 7 1009.0 1009.0 0.0
05/11:00am 31.7 36.1 23.5 62 5.7 NNW 6 11 3 6 1009.3 1009.3 0.0
05/10:30am 31.1 35.6 23.7 64 5.1 NNW 6 9 3 5 1009.7 1009.7 0.0
05/10:00am 31.3 35.8 23.7 64 5.3 N 6 9 3 5 1009.9 1009.9 0.0
05/09:30am 31.3 35.7 23.4 63 5.5 NNE 6 7 3 4 1009.9 1009.9 0.0
05/09:00am 30.4 35.3 23.6 67 4.7 NNE 4 9 2 5 1010.1 1010.1 0.0
05/08:30am 30.7 34.9 23.4 65 5.0 NNE 7 11 4 6 1009.8 1009.8 0.0
05/08:00am 30.0 35.0 23.9 70 4.2 NE 4 7 2 4 1009.5 1009.5 0.0
05/07:30am 29.4 34.4 23.8 72 3.9 NE 4 7 2 4 1009.1 1009.1 0.0
05/07:00am 28.7 34.2 24.0 76 3.3 NNE 2 6 1 3 1009.1 1009.1 0.0
05/06:30am 27.9 32.7 23.5 77 3.0 NE 4 6 2 3 1008.5 1008.5 0.0
05/06:00am 27.4 31.8 23.4 79 2.7 NNE 6 7 3 4 1008.1 1008.1 0.0
05/05:30am 27.3 31.5 23.1 78 2.9 NNE 6 7 3 4 1008.4 1008.4 0.0
05/05:00am 27.2 32.1 23.0 78 2.9 NE 2 4 1 2 1008.0 1008.0 0.0
05/04:30am 28.1 32.3 23.2 74 3.4 NNE 6 9 3 5 1007.6 1007.6 0.0
05/04:00am 28.0 32.4 23.4 76 3.2 NNE 6 6 3 3 1007.6 1007.6 0.0
05/03:30am 28.2 33.2 23.8 77 3.0 NE 4 6 2 3 1007.6 1007.6 0.0
05/03:00am 28.7 33.6 23.6 74 3.5 NNE 4 7 2 4 1007.4 1007.4 0.0
05/02:30am 28.8 34.0 23.5 73 3.6 N 2 4 1 2 1007.3 1007.3 0.0
05/02:00am 29.1 34.1 23.8 73 3.7 N 4 9 2 5 1007.4 1007.4 0.0
05/01:30am 29.4 34.1 24.0 72 3.7 N 6 7 3 4 1007.8 1007.8 0.0
05/01:00am 29.5 34.1 24.1 72 3.7 N 7 15 4 8 1007.8 1007.8 0.0
05/12:30am 29.7 34.3 24.1 72 3.9 N 7 17 4 9 1008.1 1008.1 0.0
05/12:00am 29.8 34.1 24.2 72 3.9 NNW 9 15 5 8 1008.4 1008.4 0.0

Latest Capital City Observations: Canberra | Sydney | Melbourne | Brisbane | Adelaide | Perth | Hobart | Darwin

Other Formats:

Comma delimited format used in spreadsheet applications
http://www.bom.gov.au/fwo/IDD60901/IDD60901.94116.axf

JavaScript Object Notation format (JSON) in row-major order
http://www.bom.gov.au/fwo/IDD60901/IDD60901.94116.json